Time;durP1;ratioP1;P1;durP2;ratioP2;P2;SDS_P1;SDS_P2;PMS_P1;PMS_P2;Temp;Humidity;BMP_temperature;BMP_pressure;BME280_temperature;BME280_humidity;BME280_pressure;Samples;Min_cycle;Max_cycle;Signal;HPM_P1;HPM_P2
2023/06/15 00:00:54;;;;;;;;;;;24.30;30.70;;;;;;1551013;75;786;-63
2023/06/15 00:02:56;;;;;;;;;;;24.20;30.70;;;;;;1546803;75;757;-63
2023/06/15 00:04:58;;;;;;;;;;;24.20;30.60;;;;;;1543585;75;784;-62
2023/06/15 00:07:00;;;;;;;;;;;24.20;30.70;;;;;;1557948;75;1626;-63
2023/06/15 00:09:02;;;;;;;;;;;24.20;30.70;;;;;;1548054;75;1094;-62
2023/06/15 00:11:04;;;;;;;;;;;24.20;30.60;;;;;;1551615;75;1915;-63
2023/06/15 00:13:06;;;;;;;;;;;24.20;30.80;;;;;;1551551;75;728;-63
2023/06/15 00:15:08;;;;;;;;;;;24.20;30.70;;;;;;1555315;75;661;-62
2023/06/15 00:17:11;;;;;;;;;;;24.20;30.80;;;;;;1568109;75;748;-62
2023/06/15 00:19:13;;;;;;;;;;;24.20;30.70;;;;;;1553694;74;1148;-63
2023/06/15 00:21:15;;;;;;;;;;;24.30;30.80;;;;;;1552757;75;1529;-63
2023/06/15 00:23:17;;;;;;;;;;;24.30;30.80;;;;;;1563921;75;786;-63
2023/06/15 00:25:19;;;;;;;;;;;24.20;30.50;;;;;;1568792;75;1052;-63
2023/06/15 00:27:21;;;;;;;;;;;24.30;30.70;;;;;;1560102;74;1537;-63
2023/06/15 00:29:23;;;;;;;;;;;24.20;30.50;;;;;;1558465;75;724;-63
2023/06/15 00:31:25;;;;;;;;;;;24.30;30.70;;;;;;1562427;74;1941;-62
2023/06/15 00:33:26;;;;;;;;;;;24.30;30.70;;;;;;1553293;75;757;-61
2023/06/15 00:35:28;;;;;;;;;;;24.30;31.00;;;;;;1563032;75;1675;-62
2023/06/15 00:37:30;;;;;;;;;;;24.20;30.60;;;;;;1554385;75;1122;-62
2023/06/15 00:39:32;;;;;;;;;;;24.30;30.70;;;;;;1557443;74;785;-63
2023/06/15 00:41:39;;;;;;;;;;;24.20;30.50;;;;;;1557734;75;664;-63
2023/06/15 00:43:41;;;;;;;;;;;24.30;30.70;;;;;;1553383;74;1796;-64
2023/06/15 00:45:43;;;;;;;;;;;24.20;30.50;;;;;;1562235;75;785;-63
2023/06/15 00:47:46;;;;;;;;;;;24.20;31.10;;;;;;1565343;74;1619;-63
2023/06/15 00:49:48;;;;;;;;;;;24.20;31.00;;;;;;1561478;75;798;-63
2023/06/15 00:51:50;;;;;;;;;;;24.20;31.20;;;;;;1553203;75;1939;-63
2023/06/15 00:53:51;;;;;;;;;;;24.30;31.10;;;;;;1553689;74;945;-63
2023/06/15 00:55:53;;;;;;;;;;;24.30;31.10;;;;;;1570262;74;691;-63
2023/06/15 00:57:56;;;;;;;;;;;24.20;30.70;;;;;;1564519;74;1103;-63
2023/06/15 00:59:58;;;;;;;;;;;24.20;30.90;;;;;;1558714;75;688;-63
2023/06/15 01:02:00;;;;;;;;;;;24.20;30.90;;;;;;1557872;75;1539;-63
2023/06/15 01:04:01;;;;;;;;;;;24.20;30.90;;;;;;1558959;74;772;-63
2023/06/15 01:06:13;;;;;;;;;;;24.20;30.90;;;;;;1548674;75;691;-63
2023/06/15 01:08:08;;;;;;;;;;;24.20;31.00;;;;;;1551908;74;1684;-64
2023/06/15 01:10:10;;;;;;;;;;;24.20;31.00;;;;;;1568983;74;903;-63
2023/06/15 01:12:12;;;;;;;;;;;24.20;30.90;;;;;;1562022;75;1939;-63
2023/06/15 01:14:14;;;;;;;;;;;24.20;30.90;;;;;;1564782;75;807;-62
2023/06/15 01:16:20;;;;;;;;;;;24.20;31.10;;;;;;1564571;75;1352;-63
2023/06/15 01:18:22;;;;;;;;;;;24.20;31.90;;;;;;1568017;74;1538;-62
2023/06/15 01:20:25;;;;;;;;;;;24.10;31.80;;;;;;1563060;74;769;-63
2023/06/15 01:22:29;;;;;;;;;;;24.20;31.50;;;;;;1562232;74;709;-63
2023/06/15 01:24:33;;;;;;;;;;;24.20;31.50;;;;;;1564978;75;1763;-61
2023/06/15 01:26:38;;;;;;;;;;;24.20;31.20;;;;;;1567387;75;2110;-62
2023/06/15 01:28:44;;;;;;;;;;;24.20;31.50;;;;;;1566238;74;1717;-60
2023/06/15 01:30:44;;;;;;;;;;;24.20;31.70;;;;;;1558145;74;1920;-63
2023/06/15 01:32:46;;;;;;;;;;;24.20;31.30;;;;;;1560461;75;735;-62
2023/06/15 01:34:48;;;;;;;;;;;24.20;31.50;;;;;;1550806;75;771;-62
2023/06/15 01:36:50;;;;;;;;;;;24.20;31.40;;;;;;1552606;74;932;-62
2023/06/15 01:38:53;;;;;;;;;;;24.20;31.40;;;;;;1543973;75;1146;-62
2023/06/15 01:40:55;;;;;;;;;;;24.10;31.10;;;;;;1545342;75;718;-63
2023/06/15 01:42:57;;;;;;;;;;;24.20;31.10;;;;;;1549267;75;795;-63
2023/06/15 01:44:59;;;;;;;;;;;24.20;31.10;;;;;;1550774;75;1541;-64
2023/06/15 01:47:01;;;;;;;;;;;24.20;31.00;;;;;;1557863;75;801;-63
2023/06/15 01:49:03;;;;;;;;;;;24.10;31.10;;;;;;1543051;75;1131;-63
2023/06/15 01:51:05;;;;;;;;;;;24.20;31.10;;;;;;1556582;74;1932;-62
2023/06/15 01:53:07;;;;;;;;;;;24.20;31.00;;;;;;1546778;75;808;-61
2023/06/15 01:55:08;;;;;;;;;;;24.20;31.00;;;;;;1554076;75;852;-63
2023/06/15 01:57:10;;;;;;;;;;;24.20;31.20;;;;;;1547592;75;821;-63
2023/06/15 01:59:12;;;;;;;;;;;24.20;30.90;;;;;;1560760;75;1542;-63
2023/06/15 02:01:14;;;;;;;;;;;24.10;30.90;;;;;;1550058;75;804;-63
2023/06/15 02:03:16;;;;;;;;;;;24.20;31.00;;;;;;1546059;75;681;-63
2023/06/15 02:05:18;;;;;;;;;;;24.20;31.00;;;;;;1562430;74;666;-63
2023/06/15 02:07:20;;;;;;;;;;;24.20;31.10;;;;;;1565470;75;791;-62
2023/06/15 02:09:22;;;;;;;;;;;24.10;31.10;;;;;;1550815;75;726;-62
2023/06/15 02:11:25;;;;;;;;;;;24.20;31.40;;;;;;1557705;75;1912;-62
2023/06/15 02:13:26;;;;;;;;;;;24.20;31.20;;;;;;1562341;75;1506;-62
2023/06/15 02:15:28;;;;;;;;;;;24.10;31.40;;;;;;1569973;75;680;-62
2023/06/15 02:17:32;;;;;;;;;;;24.20;31.30;;;;;;1556464;75;1143;-63
2023/06/15 02:19:34;;;;;;;;;;;24.10;31.30;;;;;;1549337;75;743;-62
2023/06/15 02:21:36;;;;;;;;;;;24.10;31.20;;;;;;1559949;75;685;-63
2023/06/15 02:23:37;;;;;;;;;;;24.10;31.30;;;;;;1557469;75;705;-62
2023/06/15 02:25:39;;;;;;;;;;;24.20;31.40;;;;;;1545326;75;785;-63
2023/06/15 02:27:41;;;;;;;;;;;24.10;31.30;;;;;;1558453;75;1554;-62
2023/06/15 02:29:43;;;;;;;;;;;24.20;31.30;;;;;;1544141;75;737;-63
2023/06/15 02:31:45;;;;;;;;;;;24.10;31.30;;;;;;1547000;75;1943;-63
2023/06/15 02:33:47;;;;;;;;;;;24.10;31.40;;;;;;1564088;75;765;-63
2023/06/15 02:35:49;;;;;;;;;;;24.10;31.30;;;;;;1556237;75;755;-63
2023/06/15 02:37:51;;;;;;;;;;;24.00;31.30;;;;;;1544978;74;1149;-63
2023/06/15 02:39:53;;;;;;;;;;;24.10;31.30;;;;;;1549615;75;714;-64
2023/06/15 02:41:55;;;;;;;;;;;24.00;31.20;;;;;;1568616;74;1556;-63
2023/06/15 02:43:57;;;;;;;;;;;24.10;31.30;;;;;;1551568;75;713;-63
2023/06/15 02:45:58;;;;;;;;;;;24.10;31.50;;;;;;1552837;74;811;-64
2023/06/15 02:48:00;;;;;;;;;;;24.10;31.50;;;;;;1548054;74;1100;-63
2023/06/15 02:50:03;;;;;;;;;;;24.10;31.40;;;;;;1548379;75;773;-64
2023/06/15 02:52:05;;;;;;;;;;;24.00;31.30;;;;;;1547151;75;1970;-63
2023/06/15 02:54:07;;;;;;;;;;;24.10;31.50;;;;;;1554096;75;799;-64
2023/06/15 02:56:09;;;;;;;;;;;24.00;31.40;;;;;;1559923;75;1696;-63
2023/06/15 02:58:13;;;;;;;;;;;24.10;31.50;;;;;;1564999;75;1148;-64
2023/06/15 03:00:17;;;;;;;;;;;24.00;31.40;;;;;;1547313;74;2239;-63
2023/06/15 03:02:23;;;;;;;;;;;24.10;31.60;;;;;;1562070;75;1555;-62
2023/06/15 03:04:23;;;;;;;;;;;24.00;31.50;;;;;;1560998;75;1659;-63
2023/06/15 03:06:25;;;;;;;;;;;24.00;31.50;;;;;;1554374;75;746;-61
2023/06/15 03:08:31;;;;;;;;;;;24.00;31.50;;;;;;1548384;75;1563;-63
2023/06/15 03:10:31;;;;;;;;;;;24.10;31.80;;;;;;1557962;75;1537;-62
2023/06/15 03:12:33;;;;;;;;;;;24.00;31.60;;;;;;1551914;75;1938;-62
2023/06/15 03:14:36;;;;;;;;;;;24.00;31.50;;;;;;1554785;75;791;-62
2023/06/15 03:16:46;;;;;;;;;;;24.10;31.70;;;;;;1555942;75;662;-62
2023/06/15 03:18:45;;;;;;;;;;;24.00;31.60;;;;;;1551851;75;1698;-62
2023/06/15 03:20:52;;;;;;;;;;;24.00;31.50;;;;;;1545893;75;718;-62
2023/06/15 03:22:51;;;;;;;;;;;24.10;31.70;;;;;;1567021;75;1686;-63
2023/06/15 03:24:54;;;;;;;;;;;24.00;31.60;;;;;;1549035;75;726;-62
2023/06/15 03:26:58;;;;;;;;;;;24.10;31.60;;;;;;1546678;75;1060;-60
2023/06/15 03:29:00;;;;;;;;;;;24.10;31.80;;;;;;1551565;74;1196;-62
2023/06/15 03:31:05;;;;;;;;;;;24.00;31.60;;;;;;1574709;75;713;-62
2023/06/15 03:33:06;;;;;;;;;;;24.10;31.80;;;;;;1549698;75;1920;-62
2023/06/15 03:35:08;;;;;;;;;;;24.00;31.50;;;;;;1541666;75;791;-62
2023/06/15 03:37:10;;;;;;;;;;;24.10;31.80;;;;;;1544916;75;1556;-63
2023/06/15 03:39:12;;;;;;;;;;;24.00;31.50;;;;;;1539801;75;1107;-63
2023/06/15 03:41:14;;;;;;;;;;;24.00;31.50;;;;;;1542865;75;800;-63
2023/06/15 03:43:15;;;;;;;;;;;24.00;31.70;;;;;;1565553;74;734;-63
2023/06/15 03:45:20;;;;;;;;;;;24.00;31.60;;;;;;1563196;74;808;-62
2023/06/15 03:47:22;;;;;;;;;;;24.00;31.60;;;;;;1558012;75;1140;-64
2023/06/15 03:49:24;;;;;;;;;;;24.00;31.60;;;;;;1550129;75;765;-63
2023/06/15 03:51:27;;;;;;;;;;;24.00;31.60;;;;;;1543539;75;1548;-62
2023/06/15 03:53:29;;;;;;;;;;;24.00;31.80;;;;;;1553856;75;1914;-62
2023/06/15 03:55:31;;;;;;;;;;;24.10;32.00;;;;;;1561117;75;638;-62
2023/06/15 03:57:33;;;;;;;;;;;24.00;31.70;;;;;;1559882;74;1140;-63
2023/06/15 03:59:35;;;;;;;;;;;24.00;31.70;;;;;;1550618;74;781;-62
2023/06/15 04:01:37;;;;;;;;;;;24.00;31.80;;;;;;1559905;75;719;-62
2023/06/15 04:03:39;;;;;;;;;;;24.00;31.70;;;;;;1564080;74;739;-62
2023/06/15 04:05:42;;;;;;;;;;;24.10;31.90;;;;;;1567566;75;1637;-62
2023/06/15 04:07:44;;;;;;;;;;;24.10;31.90;;;;;;1544563;75;1126;-62
2023/06/15 04:09:45;;;;;;;;;;;24.00;32.30;;;;;;1545649;75;805;-62
2023/06/15 04:11:47;;;;;;;;;;;24.00;32.00;;;;;;1555843;75;1934;-63
2023/06/15 04:13:49;;;;;;;;;;;24.00;31.80;;;;;;1549146;75;749;-63
2023/06/15 04:15:52;;;;;;;;;;;24.00;31.90;;;;;;1566428;75;737;-63
2023/06/15 04:17:55;;;;;;;;;;;24.00;32.40;;;;;;1561050;75;1099;-63
2023/06/15 04:19:57;;;;;;;;;;;24.00;32.40;;;;;;1549995;75;1669;-63
2023/06/15 04:21:58;;;;;;;;;;;24.00;32.40;;;;;;1568910;75;693;-63
2023/06/15 04:24:00;;;;;;;;;;;24.00;32.00;;;;;;1551957;75;633;-61
2023/06/15 04:26:03;;;;;;;;;;;24.00;32.10;;;;;;1549239;75;783;-63
2023/06/15 04:28:05;;;;;;;;;;;24.00;32.50;;;;;;1558616;75;1165;-64
2023/06/15 04:30:08;;;;;;;;;;;24.00;32.80;;;;;;1556412;75;811;-65
2023/06/15 04:32:10;;;;;;;;;;;24.00;32.80;;;;;;1571905;75;1908;-64
2023/06/15 04:34:12;;;;;;;;;;;24.00;32.40;;;;;;1558167;75;1558;-63
2023/06/15 04:36:15;;;;;;;;;;;24.00;32.30;;;;;;1551519;75;729;-64
2023/06/15 04:38:17;;;;;;;;;;;24.00;32.30;;;;;;1545152;75;1167;-62
2023/06/15 04:40:20;;;;;;;;;;;24.10;32.30;;;;;;1560142;74;769;-64
2023/06/15 04:42:23;;;;;;;;;;;24.10;32.40;;;;;;1566865;75;1093;-62
2023/06/15 04:44:25;;;;;;;;;;;24.00;32.50;;;;;;1545165;75;771;-62
2023/06/15 04:46:27;;;;;;;;;;;24.00;32.60;;;;;;1558615;75;802;-64
2023/06/15 04:48:30;;;;;;;;;;;24.10;32.80;;;;;;1546870;75;1649;-64
2023/06/15 04:50:32;;;;;;;;;;;24.00;32.60;;;;;;1560958;75;713;-65
2023/06/15 04:52:34;;;;;;;;;;;24.00;32.80;;;;;;1546963;75;1932;-63
2023/06/15 04:54:36;;;;;;;;;;;24.00;32.90;;;;;;1549970;75;773;-63
2023/06/15 04:56:38;;;;;;;;;;;24.00;32.80;;;;;;1553399;75;727;-64
2023/06/15 04:58:40;;;;;;;;;;;24.00;32.80;;;;;;1556933;74;1122;-63
2023/06/15 05:00:42;;;;;;;;;;;24.00;33.00;;;;;;1556943;75;677;-61
2023/06/15 05:02:44;;;;;;;;;;;24.00;33.00;;;;;;1561876;75;1690;-62
2023/06/15 05:04:46;;;;;;;;;;;23.90;33.20;;;;;;1553445;74;772;-62
2023/06/15 05:06:48;;;;;;;;;;;24.00;33.20;;;;;;1554237;75;797;-63
2023/06/15 05:08:50;;;;;;;;;;;24.00;33.20;;;;;;1559395;74;1121;-60
2023/06/15 05:10:52;;;;;;;;;;;24.00;33.20;;;;;;1555118;74;789;-63
2023/06/15 05:12:54;;;;;;;;;;;24.10;33.30;;;;;;1548349;75;1934;-62
2023/06/15 05:14:56;;;;;;;;;;;24.00;33.10;;;;;;1559860;75;1373;-64
2023/06/15 05:17:03;;;;;;;;;;;24.10;33.30;;;;;;1546682;75;770;-64
2023/06/15 05:19:01;;;;;;;;;;;24.00;33.30;;;;;;1553797;75;1589;-64
2023/06/15 05:21:03;;;;;;;;;;;24.00;33.30;;;;;;1552154;74;701;-62
2023/06/15 05:23:05;;;;;;;;;;;24.00;33.20;;;;;;1552193;74;755;-63
2023/06/15 05:25:07;;;;;;;;;;;24.00;33.30;;;;;;1543076;75;787;-62
2023/06/15 05:27:09;;;;;;;;;;;24.00;33.30;;;;;;1545827;75;804;-64
2023/06/15 05:29:11;;;;;;;;;;;24.00;33.40;;;;;;1539799;75;1487;-63
2023/06/15 05:31:13;;;;;;;;;;;24.00;33.40;;;;;;1554318;76;760;-65
2023/06/15 05:33:15;;;;;;;;;;;24.00;33.70;;;;;;1543433;76;1942;-64
2023/06/15 05:35:17;;;;;;;;;;;24.00;33.90;;;;;;1544671;75;739;-63
2023/06/15 05:37:18;;;;;;;;;;;24.00;33.70;;;;;;1538642;76;704;-64
2023/06/15 05:39:20;;;;;;;;;;;24.00;33.60;;;;;;1534597;75;1180;-63
2023/06/15 05:41:22;;;;;;;;;;;24.00;33.60;;;;;;1550246;76;764;-63
2023/06/15 05:43:24;;;;;;;;;;;24.00;33.70;;;;;;1542394;76;1389;-63
2023/06/15 05:45:26;;;;;;;;;;;23.90;33.80;;;;;;1550140;76;734;-63
2023/06/15 05:47:28;;;;;;;;;;;23.90;33.90;;;;;;1543424;75;1122;-65
2023/06/15 05:49:30;;;;;;;;;;;23.90;33.90;;;;;;1544567;75;715;-65
2023/06/15 05:51:32;;;;;;;;;;;24.00;33.80;;;;;;1548341;76;755;-65
2023/06/15 05:53:34;;;;;;;;;;;23.90;34.00;;;;;;1525425;76;1940;-65
2023/06/15 05:55:36;;;;;;;;;;;23.90;34.10;;;;;;1534893;76;911;-67
2023/06/15 05:57:37;;;;;;;;;;;23.90;34.20;;;;;;1540008;75;1552;-65
2023/06/15 05:59:39;;;;;;;;;;;23.90;34.20;;;;;;1552925;75;754;-64
2023/06/15 06:01:42;;;;;;;;;;;23.90;34.20;;;;;;1548103;76;785;-64
2023/06/15 06:03:44;;;;;;;;;;;24.00;34.20;;;;;;1540960;75;734;-65
2023/06/15 06:05:45;;;;;;;;;;;23.90;34.20;;;;;;1562178;76;790;-65
2023/06/15 06:07:47;;;;;;;;;;;23.90;34.20;;;;;;1534796;75;1150;-64
2023/06/15 06:09:49;;;;;;;;;;;23.90;34.20;;;;;;1549068;76;685;-65
2023/06/15 06:11:51;;;;;;;;;;;23.90;34.20;;;;;;1547477;76;1539;-65
2023/06/15 06:13:53;;;;;;;;;;;24.00;34.20;;;;;;1537335;76;1930;-68
2023/06/15 06:15:55;;;;;;;;;;;23.90;34.20;;;;;;1548367;76;675;-65
2023/06/15 06:17:57;;;;;;;;;;;23.90;34.20;;;;;;1546670;75;1134;-66
2023/06/15 06:19:59;;;;;;;;;;;23.90;34.20;;;;;;1558896;76;807;-64
2023/06/15 06:22:01;;;;;;;;;;;24.00;34.20;;;;;;1526383;75;724;-65
2023/06/15 06:24:03;;;;;;;;;;;23.90;34.20;;;;;;1540699;76;782;-65
2023/06/15 06:26:05;;;;;;;;;;;23.90;34.20;;;;;;1539087;76;1367;-66
2023/06/15 06:28:07;;;;;;;;;;;23.90;34.20;;;;;;1531362;76;1154;-65
2023/06/15 06:30:09;;;;;;;;;;;24.00;34.30;;;;;;1548443;75;785;-65
2023/06/15 06:32:11;;;;;;;;;;;24.00;34.30;;;;;;1556142;74;731;-66
2023/06/15 06:34:13;;;;;;;;;;;24.10;34.10;;;;;;1562571;75;1949;-66
2023/06/15 06:36:14;;;;;;;;;;;24.30;33.80;;;;;;1560345;75;785;-66
2023/06/15 06:38:16;;;;;;;;;;;24.50;33.60;;;;;;1550409;75;1178;-66
2023/06/15 06:40:18;;;;;;;;;;;24.50;33.40;;;;;;1564521;75;1503;-66
2023/06/15 06:42:20;;;;;;;;;;;24.60;33.40;;;;;;1558534;75;754;-67
2023/06/15 06:44:22;;;;;;;;;;;24.50;33.20;;;;;;1565477;75;973;-65
2023/06/15 06:46:24;;;;;;;;;;;24.60;33.10;;;;;;1553842;74;793;-66
2023/06/15 06:48:26;;;;;;;;;;;24.70;33.20;;;;;;1564620;75;1164;-67
2023/06/15 06:50:28;;;;;;;;;;;24.70;33.00;;;;;;1551162;75;743;-67
2023/06/15 06:52:29;;;;;;;;;;;24.80;32.80;;;;;;1554943;75;751;-66
2023/06/15 06:54:31;;;;;;;;;;;24.90;32.80;;;;;;1553497;75;1938;-67
2023/06/15 06:56:33;;;;;;;;;;;24.90;32.80;;;;;;1562559;75;847;-66
2023/06/15 06:58:36;;;;;;;;;;;24.90;32.80;;;;;;1554849;75;1222;-66
2023/06/15 07:00:38;;;;;;;;;;;25.00;32.60;;;;;;1566823;74;684;-60
2023/06/15 07:02:39;;;;;;;;;;;25.00;32.60;;;;;;1570527;75;719;-61
2023/06/15 07:04:41;;;;;;;;;;;25.00;32.50;;;;;;1549505;74;714;-62
2023/06/15 07:06:43;;;;;;;;;;;25.10;32.30;;;;;;1549680;75;701;-61
2023/06/15 07:08:47;;;;;;;;;;;25.00;32.30;;;;;;1557172;75;1633;-61
2023/06/15 07:10:49;;;;;;;;;;;25.00;32.30;;;;;;1562053;75;1022;-62
2023/06/15 07:12:55;;;;;;;;;;;25.00;32.30;;;;;;1549242;75;1946;-62
2023/06/15 07:14:55;;;;;;;;;;;25.10;32.20;;;;;;1580322;74;989;-62
2023/06/15 07:16:57;;;;;;;;;;;25.10;32.00;;;;;;1557740;75;759;-61
2023/06/15 07:18:59;;;;;;;;;;;25.10;32.10;;;;;;1550178;75;1121;-62
2023/06/15 07:21:01;;;;;;;;;;;25.10;32.20;;;;;;1555150;75;747;-62
2023/06/15 07:23:02;;;;;;;;;;;25.10;32.40;;;;;;1559899;75;1675;-62
2023/06/15 07:25:05;;;;;;;;;;;25.10;32.30;;;;;;1564495;75;724;-62
2023/06/15 07:27:07;;;;;;;;;;;25.10;32.30;;;;;;1554985;75;796;-62
2023/06/15 07:29:09;;;;;;;;;;;25.10;32.30;;;;;;1561213;75;1146;-62
2023/06/15 07:31:10;;;;;;;;;;;25.20;32.30;;;;;;1565710;74;732;-61
2023/06/15 07:33:12;;;;;;;;;;;25.30;32.20;;;;;;1545229;75;1993;-62
2023/06/15 07:35:15;;;;;;;;;;;25.20;32.10;;;;;;1547495;75;712;-62
2023/06/15 07:37:17;;;;;;;;;;;25.30;32.30;;;;;;1551410;75;1511;-62
2023/06/15 07:39:19;;;;;;;;;;;25.20;32.30;;;;;;1550748;75;1168;-62
2023/06/15 07:41:21;;;;;;;;;;;25.20;32.30;;;;;;1546454;75;849;-62
2023/06/15 07:43:22;;;;;;;;;;;25.30;32.20;;;;;;1557244;74;863;-62
2023/06/15 07:45:24;;;;;;;;;;;25.20;32.20;;;;;;1563367;75;727;-62
2023/06/15 07:47:27;;;;;;;;;;;25.30;32.10;;;;;;1545571;75;1239;-63
2023/06/15 07:49:29;;;;;;;;;;;25.30;32.10;;;;;;1561833;75;812;-61
2023/06/15 07:51:30;;;;;;;;;;;25.30;32.20;;;;;;1550690;75;1456;-61
2023/06/15 07:53:32;;;;;;;;;;;25.30;32.30;;;;;;1544388;75;1925;-62
2023/06/15 07:55:34;;;;;;;;;;;25.30;32.20;;;;;;1557266;75;823;-60
2023/06/15 07:57:36;;;;;;;;;;;25.40;32.20;;;;;;1554041;75;1135;-60
2023/06/15 07:59:38;;;;;;;;;;;25.30;32.20;;;;;;1549991;75;773;-61
2023/06/15 08:01:40;;;;;;;;;;;25.20;32.00;;;;;;1548240;75;762;-62
2023/06/15 08:03:42;;;;;;;;;;;25.30;32.30;;;;;;1554112;74;1598;-62
2023/06/15 08:05:44;;;;;;;;;;;25.30;32.30;;;;;;1542587;75;752;-62
2023/06/15 08:07:45;;;;;;;;;;;25.20;32.30;;;;;;1556316;75;1148;-61
2023/06/15 08:09:47;;;;;;;;;;;25.30;32.30;;;;;;1555047;75;777;-63
2023/06/15 08:11:50;;;;;;;;;;;25.10;32.30;;;;;;1553425;75;769;-62
2023/06/15 08:13:52;;;;;;;;;;;25.10;32.50;;;;;;1553359;75;1908;-63
2023/06/15 08:15:54;;;;;;;;;;;25.30;32.20;;;;;;1559584;75;810;-63
2023/06/15 08:17:56;;;;;;;;;;;25.20;32.10;;;;;;1548433;75;1467;-62
2023/06/15 08:19:58;;;;;;;;;;;25.10;31.90;;;;;;1546109;75;811;-67
2023/06/15 08:21:59;;;;;;;;;;;25.20;31.90;;;;;;1557752;75;728;-67
2023/06/15 08:24:01;;;;;;;;;;;25.20;32.10;;;;;;1563609;75;795;-67
2023/06/15 08:26:03;;;;;;;;;;;25.10;32.20;;;;;;1559831;74;730;-66
2023/06/15 08:28:05;;;;;;;;;;;25.10;32.40;;;;;;1552079;75;1085;-62
2023/06/15 08:30:07;;;;;;;;;;;25.10;32.40;;;;;;1559745;74;1087;-63
2023/06/15 08:32:13;;;;;;;;;;;25.10;32.40;;;;;;1536473;76;1334;-61
2023/06/15 08:34:13;;;;;;;;;;;25.10;32.30;;;;;;1541191;75;1923;-62
2023/06/15 08:36:15;;;;;;;;;;;25.10;32.20;;;;;;1541468;75;777;-63
2023/06/15 08:38:17;;;;;;;;;;;25.10;32.10;;;;;;1532128;75;1200;-62
2023/06/15 08:40:19;;;;;;;;;;;25.00;32.00;;;;;;1536398;75;793;-62
2023/06/15 08:42:23;;;;;;;;;;;25.10;32.00;;;;;;1510198;77;748;-63
2023/06/15 08:44:26;;;;;;;;;;;25.00;31.90;;;;;;1541581;76;1655;-63
2023/06/15 08:46:28;;;;;;;;;;;25.10;32.20;;;;;;1536522;75;1595;-64
2023/06/15 08:48:31;;;;;;;;;;;25.10;32.00;;;;;;1550044;75;1142;-64
2023/06/15 08:50:33;;;;;;;;;;;25.10;32.00;;;;;;1541449;76;774;-62
2023/06/15 08:52:35;;;;;;;;;;;25.10;31.50;;;;;;1542277;75;715;-62
2023/06/15 08:54:41;;;;;;;;;;;25.10;32.00;;;;;;1539802;76;1904;-62
2023/06/15 08:56:41;;;;;;;;;;;25.10;31.90;;;;;;1534963;75;1685;-63
2023/06/15 08:58:49;;;;;;;;;;;25.00;31.70;;;;;;1505721;77;1140;-65
2023/06/15 09:00:49;;;;;;;;;;;25.00;31.40;;;;;;1542584;76;1725;-63
2023/06/15 09:02:52;;;;;;;;;;;25.10;31.30;;;;;;1536385;76;799;-61
2023/06/15 09:05:03;;;;;;;;;;;25.10;31.30;;;;;;1541076;76;767;-60
2023/06/15 09:07:07;;;;;;;;;;;25.00;30.90;;;;;;1534152;75;695;-63
2023/06/15 09:09:09;;;;;;;;;;;25.00;31.20;;;;;;1541171;76;1115;-63
2023/06/15 09:11:11;;;;;;;;;;;25.10;31.00;;;;;;1537169;75;797;-63
2023/06/15 09:13:18;;;;;;;;;;;25.00;31.50;;;;;;1541550;76;695;-63
2023/06/15 09:15:24;;;;;;;;;;;25.00;30.80;;;;;;1547222;75;1925;-63
2023/06/15 09:17:30;;;;;;;;;;;24.80;30.80;;;;;;1529832;76;1159;-63
2023/06/15 09:19:33;;;;;;;;;;;24.70;31.30;;;;;;1537476;75;609;-65
2023/06/15 09:21:35;;;;;;;;;;;24.60;31.70;;;;;;1539752;75;1994;-65
2023/06/15 09:23:38;;;;;;;;;;;24.50;31.80;;;;;;1511015;77;783;-65
2023/06/15 09:25:41;;;;;;;;;;;24.50;32.10;;;;;;1538771;75;783;-65
2023/06/15 09:27:45;;;;;;;;;;;24.30;32.20;;;;;;1498123;77;1242;-65
2023/06/15 09:30:02;;;;;;;;;;;24.30;32.60;;;;;;1540269;75;1627;-65
2023/06/15 09:32:05;;;;;;;;;;;24.30;32.70;;;;;;1541830;75;711;-65
2023/06/15 09:34:07;;;;;;;;;;;24.30;32.70;;;;;;1538126;75;1951;-65
2023/06/15 09:36:09;;;;;;;;;;;24.30;32.80;;;;;;1541285;76;740;-65
2023/06/15 09:38:11;;;;;;;;;;;24.30;32.40;;;;;;1539429;75;1166;-65
2023/06/15 09:40:13;;;;;;;;;;;24.40;32.70;;;;;;1541538;76;651;-66
2023/06/15 09:42:15;;;;;;;;;;;24.50;32.70;;;;;;1540552;76;1518;-66
2023/06/15 09:44:17;;;;;;;;;;;24.50;32.60;;;;;;1540457;75;713;-66
2023/06/15 09:46:20;;;;;;;;;;;24.60;32.40;;;;;;1506510;77;1012;-65
2023/06/15 09:48:22;;;;;;;;;;;24.70;32.20;;;;;;1546893;75;1143;-65
2023/06/15 09:50:32;;;;;;;;;;;24.60;31.80;;;;;;1545988;76;651;-65
2023/06/15 09:52:31;;;;;;;;;;;24.60;31.90;;;;;;1540707;76;1282;-66
2023/06/15 09:54:33;;;;;;;;;;;24.60;32.10;;;;;;1506010;77;1944;-65
2023/06/15 09:56:35;;;;;;;;;;;24.70;32.10;;;;;;1537712;75;1586;-65
2023/06/15 09:58:37;;;;;;;;;;;24.60;31.40;;;;;;1534330;75;1145;-64
2023/06/15 10:00:40;;;;;;;;;;;24.70;31.60;;;;;;1538238;76;610;-66
2023/06/15 10:02:41;;;;;;;;;;;24.70;30.90;;;;;;1533599;75;739;-65
2023/06/15 10:04:43;;;;;;;;;;;24.60;30.90;;;;;;1553312;76;832;-66
2023/06/15 10:06:46;;;;;;;;;;;24.60;31.50;;;;;;1536830;75;816;-64
2023/06/15 10:08:51;;;;;;;;;;;24.70;31.90;;;;;;1536795;76;1131;-66
2023/06/15 10:10:51;;;;;;;;;;;24.70;31.00;;;;;;1534080;75;1570;-64
2023/06/15 10:12:53;;;;;;;;;;;24.60;31.50;;;;;;1541704;76;704;-64
2023/06/15 10:14:58;;;;;;;;;;;24.50;31.20;;;;;;1530228;76;1949;-65
2023/06/15 10:17:03;;;;;;;;;;;24.50;30.60;;;;;;1530879;75;750;-65
2023/06/15 10:19:05;;;;;;;;;;;24.40;30.90;;;;;;1554841;76;1118;-65
2023/06/15 10:21:09;;;;;;;;;;;24.50;31.80;;;;;;1541908;75;805;-64
2023/06/15 10:23:12;;;;;;;;;;;24.50;31.10;;;;;;1545994;76;727;-65
2023/06/15 10:25:15;;;;;;;;;;;24.50;31.50;;;;;;1542058;76;1289;-65
2023/06/15 10:27:17;;;;;;;;;;;24.50;31.40;;;;;;1539080;75;745;-65
2023/06/15 10:29:24;;;;;;;;;;;24.40;31.00;;;;;;1540249;75;1100;-65
2023/06/15 10:31:30;;;;;;;;;;;24.50;31.50;;;;;;1543456;74;1046;-64
2023/06/15 10:33:32;;;;;;;;;;;24.40;30.90;;;;;;1554540;74;1611;-64
2023/06/15 10:35:45;;;;;;;;;;;24.50;31.30;;;;;;1560417;74;1910;-64
2023/06/15 10:37:48;;;;;;;;;;;24.40;31.20;;;;;;1565406;74;1187;-64
2023/06/15 10:39:50;;;;;;;;;;;24.40;30.90;;;;;;1561516;74;1764;-64
2023/06/15 10:41:53;;;;;;;;;;;24.30;30.90;;;;;;1559780;74;730;-64
2023/06/15 10:43:59;;;;;;;;;;;24.40;31.20;;;;;;1553656;74;934;-65
2023/06/15 10:46:02;;;;;;;;;;;24.40;31.30;;;;;;1562640;74;805;-65
2023/06/15 10:48:04;;;;;;;;;;;24.50;30.80;;;;;;1565553;74;1075;-67
2023/06/15 10:50:06;;;;;;;;;;;24.50;31.40;;;;;;1580922;74;777;-67
2023/06/15 10:52:08;;;;;;;;;;;24.50;30.90;;;;;;1545202;76;1149;-67
2023/06/15 10:54:23;;;;;;;;;;;24.50;30.40;;;;;;1569644;74;1934;-68
2023/06/15 10:56:27;;;;;;;;;;;24.50;30.90;;;;;;1563284;74;711;-65
2023/06/15 10:58:29;;;;;;;;;;;24.50;30.00;;;;;;1537772;75;1631;-67
2023/06/15 11:00:30;;;;;;;;;;;24.50;31.30;;;;;;1562986;74;738;-66
2023/06/15 11:02:34;;;;;;;;;;;24.50;30.50;;;;;;1552377;74;834;-65
2023/06/15 11:04:36;;;;;;;;;;;24.50;31.20;;;;;;1509552;77;748;-64
2023/06/15 11:06:38;;;;;;;;;;;24.50;30.80;;;;;;1522772;77;1497;-65
2023/06/15 11:08:47;;;;;;;;;;;24.50;31.00;;;;;;1510177;77;1090;-64
2023/06/15 11:10:49;;;;;;;;;;;24.60;30.50;;;;;;1513092;77;677;-65
2023/06/15 11:13:01;;;;;;;;;;;24.50;30.00;;;;;;1537328;76;746;-64
2023/06/15 11:15:03;;;;;;;;;;;24.60;30.10;;;;;;1544190;74;1937;-66
2023/06/15 11:17:05;;;;;;;;;;;24.50;30.40;;;;;;1554838;74;733;-65
2023/06/15 11:19:12;;;;;;;;;;;24.50;30.70;;;;;;1570862;74;1061;-65
2023/06/15 11:21:15;;;;;;;;;;;24.50;31.10;;;;;;1559096;74;1576;-64
2023/06/15 11:23:19;;;;;;;;;;;24.50;31.20;;;;;;1511316;77;1647;-64
2023/06/15 11:25:28;;;;;;;;;;;24.40;31.40;;;;;;1520107;76;738;-67
2023/06/15 11:27:25;;;;;;;;;;;24.20;31.60;;;;;;1516508;76;1601;-69
2023/06/15 11:29:27;;;;;;;;;;;24.30;32.00;;;;;;1511676;76;713;-64
2023/06/15 11:31:29;;;;;;;;;;;24.20;32.10;;;;;;1511241;76;1065;-68
2023/06/15 11:33:32;;;;;;;;;;;24.20;32.10;;;;;;1516547;77;758;-66
2023/06/15 11:35:33;;;;;;;;;;;24.20;32.20;;;;;;1517324;77;1930;-65
2023/06/15 11:37:35;;;;;;;;;;;24.20;32.30;;;;;;1516434;77;1210;-68
2023/06/15 11:39:37;;;;;;;;;;;24.20;32.30;;;;;;1510819;77;741;-68
2023/06/15 11:41:43;;;;;;;;;;;24.20;32.40;;;;;;1521736;77;803;-65
2023/06/15 11:43:48;;;;;;;;;;;24.20;32.50;;;;;;1510023;77;1636;-65
2023/06/15 11:45:50;;;;;;;;;;;24.20;32.80;;;;;;1515762;77;688;-70
2023/06/15 11:47:52;;;;;;;;;;;24.20;33.10;;;;;;1519179;77;1164;-68
2023/06/15 11:49:54;;;;;;;;;;;24.20;33.00;;;;;;1505981;77;1604;-65
2023/06/15 11:51:56;;;;;;;;;;;24.20;33.00;;;;;;1484670;78;1060;-65
